Latest Coastal Weather Observations for Gabo Island

IDV60701

Issued at 10:11 am EST Tuesday 31 May 2016 (issued every 10 minutes, with the page automatically refreshed every 10 minutes)

About coastal observations | Map of coastal stations | Coastal observations for VIC | Marine services | Other Formats
Station Details ID: 084016 Name: GABO ISLAND LIGHTHOUSE Lat: -37.57 Lon: 149.92 Height: 15.2 m
Data from the previous 72 hours. | See also: Recent months at Gabo Island
Date/Time
EST
Temp

°C
Wind Pressure Rain
since 9am
mm
Weather Cloud Vis
km
Sea
Height
m
Swell
Dir
 
Speed
knots
Gust
knots
hPa Trend Height
m
Period
s
Dir
31/10:00am 14.0 WNW 8 9 1031.8 - 0.0 - - - - - - -
31/09:30am 13.2 WNW 8 9 1031.7 - 0.0 - - - - - - -
31/09:00am 12.9 WNW 7 9 1031.7 - 0.4 Fine Mostly clear 30 1 1.2 8 S
31/08:30am 12.3 WNW 8 9 1031.4 - 0.4 - - - - - - -
31/08:00am 11.5 WNW 8 11 1031.1 - 0.4 - - - - - - -
31/07:30am 11.1 WNW 9 11 1030.8 - 0.4 - - - - - - -
31/07:00am 10.8 WNW 10 13 1030.6 - 0.4 - - - - - - -
31/06:30am 11.0 WNW 8 9 1030.3 - 0.4 - - - - - - -
31/06:00am 11.0 WNW 8 10 1030.2 - 0.4 - - - - - - -
31/05:30am 11.3 WNW 9 11 1029.9 - 0.4 - - - - - - -
31/05:00am 11.1 NW 8 11 1029.8 - 0.4 - - - - - - -
31/04:30am 11.2 WNW 9 11 1029.7 - 0.4 - - - - - - -
31/04:00am 11.2 WNW 9 11 1029.5 - 0.4 - - - - - - -
31/03:30am 11.1 WNW 10 12 1029.4 - 0.4 - - - - - - -
31/03:00am 11.0 WNW 10 12 1029.4 - 0.4 Fine Mostly clear 30 1 1.0 8 S
31/02:30am 11.2 WNW 10 12 1029.4 - 0.4 - - - - - - -
31/02:00am 11.6 WNW 9 11 1029.5 - 0.4 - - - - - - -
31/01:30am 11.6 NW 8 11 1029.5 - 0.4 - - - - - - -
31/01:00am 11.6 WNW 8 9 1029.5 - 0.4 - - - - - - -
31/12:30am 11.7 NW 9 11 1029.5 - 0.4 - - - - - - -
31/12:00am 11.6 NW 8 10 1029.7 - 0.4 - - - - - - -
 
Date/Time
EST
Temp

°C
Wind Pressure Rain
since 9am
mm
Weather Cloud Vis
km
Sea
Height
m
Swell
Dir
 
Speed
knots
Gust
knots
hPa Trend Height
m
Period
s
Dir
30/11:30pm 11.4 WNW 9 11 1029.5 - 0.4 - - - - - - -
30/11:00pm 11.4 NW 9 12 1029.4 - 0.4 - - - - - - -
30/10:30pm 11.4 WNW 8 10 1029.4 - 0.4 - - - - - - -
30/10:00pm 11.5 WNW 8 10 1029.1 - 0.0 - - - - - - -
30/09:30pm 11.5 W 10 12 1029.0 - 0.0 - - - - - - -
30/09:00pm 11.4 W 10 12 1028.8 - 0.0 Fine Mostly clear 30 1 1.2 8 S
30/08:30pm 11.8 W 12 14 1028.5 - 0.0 - - - - - - -
30/08:00pm 11.8 W 11 13 1028.4 - 0.0 - - - - - - -
30/07:30pm 11.9 W 11 14 1028.2 - 0.0 - - - - - - -
30/07:00pm 12.4 W 11 13 1028.0 - 0.0 - - - - - - -
30/06:30pm 12.7 W 10 12 1027.9 - 0.0 - - - - - - -
30/06:00pm 13.1 WSW 11 14 1027.6 - 0.0 - - - - - - -
30/05:30pm 13.3 SW 13 16 1027.2 - 0.0 - - - - - - -
30/05:00pm 13.5 SW 14 16 1026.9 - 0.0 - - - - - - -
30/04:30pm 13.4 SW 17 19 1026.4 - 0.0 - - - - - - -
30/04:00pm 13.6 SW 15 18 1026.1 - 0.0 - - - - - - -
30/03:30pm 13.9 SW 15 19 1026.0 - 0.0 - - - - - - -
30/03:00pm 13.8 SW 16 19 1025.7 - 0.0 Fine Partly cloudy 30 2 1.5 8 S
30/02:30pm 13.9 SW 16 19 1025.6 - 0.0 - - - - - - -
30/02:00pm 13.9 SW 16 19 1025.4 - 0.0 - - - - - - -
30/01:30pm 14.2 WSW 14 18 1025.5 - 0.0 - - - - - - -
30/01:00pm 14.1 WSW 16 19 1025.5 - 0.0 - - - - - - -
30/12:30pm 14.1 WSW 16 19 1025.4 - 0.0 - - - - - - -
30/12:00pm 14.1 W 15 18 1025.5 - 0.0 - - - - - - -
30/11:30am 13.7 W 15 19 1025.8 - 0.0 - - - - - - -
30/11:00am 13.8 W 15 19 1025.8 - 0.0 - - - - - - -
30/10:30am 13.9 W 13 16 1026.1 - 0.0 - - - - - - -
30/10:00am 13.0 W 16 19 1025.9 - 0.0 - - - - - - -
30/09:30am 12.5 W 15 18 1025.5 - 0.0 - - - - - - -
30/09:00am 11.8 W 16 20 1025.2 - 11.8 Fine Partly cloudy 30 2 11.5 7 S
30/08:30am 11.4 W 18 22 1024.8 - 11.8 - - - - - - -
30/08:00am 11.0 W 20 24 1024.4 - 11.8 - - - - - - -
30/07:30am 10.7 W 19 23 1024.2 - 11.8 - - - - - - -
30/07:00am 10.5 W 19 24 1023.8 - 11.8 - - - - - - -
30/06:30am 10.6 W 18 21 1023.5 - 11.8 - - - - - - -
30/06:00am 10.9 WSW 22 28 1023.0 - 11.8 - - - - - - -
30/05:30am 10.9 W 20 23 1022.7 - 11.8 - - - - - - -
30/05:00am 10.7 WSW 21 26 1022.3 - 11.8 - - - - - - -
30/04:30am 10.8 W 19 23 1021.9 - 11.8 - - - - - - -
30/04:00am 10.5 W 20 25 1021.7 - 11.8 - - - - - - -
30/03:30am 10.6 W 21 28 1021.4 - 11.8 - - - - - - -
30/03:00am 10.7 W 22 26 1021.3 - 11.4 Rain Cloudy 5 3 2.5 7 S
30/02:30am 11.0 W 21 27 1020.9 - 11.2 - - - - - - -
30/02:00am 11.1 W 21 25 1020.8 - 11.2 - - - - - - -
30/01:30am 11.0 W 21 27 1020.5 - 11.2 - - - - - - -
30/01:00am 10.8 W 20 28 1020.4 - 11.2 - - - - - - -
30/12:30am 10.8 W 22 27 1020.2 - 11.0 - - - - - - -
30/12:00am 10.8 W 21 26 1020.0 - 11.0 - - - - - - -
 
Date/Time
EST
Temp

°C
Wind Pressure Rain
since 9am
mm
Weather Cloud Vis
km
Sea
Height
m
Swell
Dir
 
Speed
knots
Gust
knots
hPa Trend Height
m
Period
s
Dir
29/11:30pm 10.8 W 20 25 1020.2 - 11.0 - - - - - - -
29/11:00pm 10.8 W 20 25 1020.0 - 11.0 - - - - - - -
29/10:30pm 10.9 WSW 24 29 1019.8 - 10.8 - - - - - - -
29/10:00pm 11.0 WSW 22 27 1019.8 - 10.2 - - - - - - -
29/09:30pm 11.1 WSW 19 23 1020.0 - 9.4 - - - - - - -
29/09:00pm 11.2 WSW 21 25 1019.8 - 6.4 Rain Cloudy 2 3 2.5 7 S
29/08:30pm 11.2 W 19 24 1019.2 - 4.2 - - - - - - -
29/08:00pm 11.2 WSW 19 23 1019.0 - 4.2 - - - - - - -
29/07:30pm 11.4 W 17 21 1018.5 - 3.0 - - - - - - -
29/07:00pm 11.1 W 20 29 1018.1 - 3.0 - - - - - - -
29/06:30pm 11.2 W 17 22 1018.0 - 2.6 - - - - - - -
29/06:00pm 11.3 WSW 18 23 1017.8 - 2.2 Rain - - - - - -
29/05:30pm 11.5 WSW 21 26 1017.5 - 1.0 - - - - - - -
29/05:00pm 12.4 WSW 22 29 1017.0 - 0.0 - - - - - - -
29/04:30pm 13.0 W 25 30 1016.6 - 0.0 - - - - - - -
29/04:00pm 13.2 W 21 26 1016.1 - 0.0 - - - - - - -
29/03:30pm 13.9 WSW 20 26 1015.9 - 0.0 - - - - - - -
29/03:00pm 13.7 WSW 27 34 1015.7 - 0.0 Fine Mostly cloudy 30 3 2.5 7 S
29/02:50pm 14.3 WSW 22 33 1015.7 - 0.0 - - - - - - -
29/02:30pm 14.3 WSW 22 27 1015.4 - 0.0 - - - - - - -
29/02:00pm 14.3 WSW 29 36 1014.9 - 0.0 - - - - - - -
29/01:30pm 14.5 WSW 23 32 1014.6 - 0.0 - - - - - - -
29/01:00pm 14.4 WSW 25 32 1014.5 - 0.0 - - - - - - -
29/12:30pm 14.4 W 23 29 1014.5 - 0.0 - - - - - - -
29/12:04pm 13.2 WSW 23 33 1014.8 - 0.0 - - - - - - -
29/12:00pm 14.0 WSW 23 30 1014.8 - 0.0 - - - - - - -
29/11:30am 14.2 WSW 22 29 1015.0 - 0.0 - - - - - - -
29/11:00am 13.6 W 25 31 1014.8 - 0.0 - - - - - - -
29/10:30am 13.1 W 24 31 1015.0 - 0.0 - - - - - - -
29/10:00am 12.8 W 23 28 1014.7 - 0.0 - - - - - - -
29/09:30am 12.8 W 22 28 1014.6 - 0.0 - - - - - - -
29/09:00am 12.8 W 22 28 1014.3 - 18.6 Distant precip. Mostly cloudy 30 3 2.0 7 SW
29/08:30am 12.0 W 23 29 1013.9 - 18.6 - - - - - - -
29/08:00am 11.7 W 22 30 1013.7 - 18.6 - - - - - - -
29/07:30am 11.4 W 24 30 1013.5 - 18.6 - - - - - - -
29/07:00am 11.3 W 24 31 1013.1 - 18.6 - - - - - - -
29/06:30am 11.2 W 26 33 1012.6 - 18.6 - - - - - - -
29/06:00am 11.2 W 23 30 1012.5 - 18.6 - - - - - - -
29/05:30am 11.2 W 24 31 1012.2 - 18.6 - - - - - - -
29/05:00am 11.3 W 24 31 1012.0 - 18.6 - - - - - - -
29/04:30am 11.1 W 23 28 1011.8 - 18.6 - - - - - - -
29/04:00am 11.2 W 24 31 1011.7 - 18.6 - - - - - - -
29/03:30am 11.3 W 25 31 1011.2 - 18.6 - - - - - - -
29/03:00am 11.3 W 26 33 1011.2 - 18.6 Fine Partly cloudy 30 2 1.2 11 SE
29/02:30am 11.2 W 26 31 1011.1 - 18.6 - - - - - - -
29/02:00am 11.2 W 27 34 1010.8 - 18.6 - - - - - - -
29/01:30am 10.8 W 25 32 1010.8 - 18.6 - - - - - - -
29/01:00am 10.9 W 23 30 1010.9 - 18.6 - - - - - - -
29/12:30am 10.9 W 24 30 1010.9 - 18.6 - - - - - - -
29/12:00am 10.9 W 24 29 1010.8 - 18.6 Rain - - - - - -
 
Date/Time
EST
Temp

°C
Wind Pressure Rain
since 9am
mm
Weather Cloud Vis
km
Sea
Height
m
Swell
Dir
 
Speed
knots
Gust
knots
hPa Trend Height
m
Period
s
Dir
28/11:30pm 11.0 W 25 32 1010.9 - 18.4 - - - - - - -
28/11:00pm 10.8 W 23 30 1011.0 - 18.4 - - - - - - -
28/10:30pm 10.9 W 22 26 1011.0 - 18.4 - - - - - - -
28/10:00pm 11.0 W 23 29 1010.8 - 18.4 - - - - - - -
28/09:30pm 10.9 W 21 25 1010.8 - 18.4 - - - - - - -
28/09:00pm 11.0 W 22 25 1010.5 - 18.4 Fine Mostly clear 20 2 1.8 11 SE
28/08:30pm 11.3 W 22 26 1010.3 - 18.4 - - - - - - -
28/08:00pm 11.4 W 22 27 1010.0 - 18.4 - - - - - - -
28/07:30pm 11.5 W 17 22 1009.8 - 18.4 - - - - - - -
28/07:00pm 12.2 WSW 24 31 1009.4 - 18.4 - - - - - - -
28/06:41pm 11.9 WSW 23 33 1009.4 - 18.4 - - - - - - -
28/06:30pm 11.9 WSW 20 25 1009.2 - 18.4 - - - - - - -
28/06:00pm 11.5 W 19 23 1008.7 - 17.8 Recent precip. - - - - - -
28/05:30pm 11.6 WSW 26 33 1008.5 - 17.6 - - - - - - -
28/05:00pm 11.2 W 20 29 1008.0 - 17.0 - - - - - - -
28/04:30pm 11.1 W 20 26 1007.5 - 15.0 - - - - - - -
28/04:00pm 11.1 W 23 30 1007.2 - 12.8 - - - - - - -
28/03:30pm 11.0 W 21 29 1006.8 - 10.6 - - - - - - -
28/03:00pm 11.0 W 21 26 1006.5 - 8.0 Rain Cloudy 2 2 1.8 11 SE
28/02:30pm 10.9 W 20 24 1006.2 - 7.8 - - - - - - -
28/02:00pm 10.5 W 22 28 1006.0 - 7.2 - - - - - - -
28/01:30pm 10.6 W 27 34 1005.5 - 5.8 - - - - - - -
28/01:00pm 10.8 W 25 31 1005.5 - 5.2 - - - - - - -
28/12:40pm 11.0 W 20 30 1005.7 - 5.2 - - - - - - -
28/12:30pm 10.8 W 18 24 1005.9 - 5.2 - - - - - - -
28/12:00pm 9.8 W 12 17 1006.1 - 5.2 Recent precip. - - - - - -
28/11:30am 9.5 WNW 15 20 1006.1 - 5.2 - - - - - - -
28/11:00am 9.4 WNW 15 20 1006.4 - 4.4 - - - - - - -
28/10:30am 9.8 W 15 21 1006.7 - 3.4 - - - - - - -

Other Formats:

Comma delimited format used in spreadsheet applications
http://www.bom.gov.au/fwo/IDV60701/IDV60701.94933.axf

JavaScript Object Notation format (JSON) in row-major order
http://www.bom.gov.au/fwo/IDV60701/IDV60701.94933.json